Terminal Aerodrome Forecast
Issued by NWS Mobile, AL

Home | Current Version | Previous Version | Text Only | Print | Product List | Glossary On
Versions: 1 2 3 4 5 6 7 8 9 10 11 12 13 14 15 16 17 18 19 20 21 22 23 24 25 26
000
FTUS44 KMOB 300500
TAFPNS
TAF
KPNS 300528Z 3006/3106 15006KT P6SM VCSH FEW030 SCT100 BKN200
     FM301500 17013KT P6SM VCTS SCT030CB BKN120 BKN250 PROB30
      3016/3022 4SM TSRA BKN030CB
     FM310100 18005KT P6SM FEW040 SCT100 BKN200=

USA.gov is the U.S. government's official web portal to all federal, state and local government web resources and services.